sensor_id;sensor_type;location;lat;lon;timestamp;temperature;humidity
6556;DHT22;3311;48.32423000;14.29074500;2023-06-14T00:00:34;20.30;43.60
6556;DHT22;3311;48.32423000;14.29074500;2023-06-14T00:03:02;20.30;43.60
6556;DHT22;3311;48.32423000;14.29074500;2023-06-14T00:05:30;20.30;43.70
6556;DHT22;3311;48.32423000;14.29074500;2023-06-14T00:07:59;20.30;43.50
6556;DHT22;3311;48.32423000;14.29074500;2023-06-14T00:10:29;20.30;43.80
6556;DHT22;3311;48.32423000;14.29074500;2023-06-14T00:12:57;20.30;43.70
6556;DHT22;3311;48.32423000;14.29074500;2023-06-14T00:15:25;20.30;43.60
6556;DHT22;3311;48.32423000;14.29074500;2023-06-14T00:17:55;20.20;43.70
6556;DHT22;3311;48.32423000;14.29074500;2023-06-14T00:20:22;20.20;44.20
6556;DHT22;3311;48.32423000;14.29074500;2023-06-14T00:22:49;20.20;44.10
6556;DHT22;3311;48.32423000;14.29074500;2023-06-14T00:25:17;20.30;44.00
6556;DHT22;3311;48.32423000;14.29074500;2023-06-14T00:27:45;20.20;44.10
6556;DHT22;3311;48.32423000;14.29074500;2023-06-14T00:30:13;20.20;44.30
6556;DHT22;3311;48.32423000;14.29074500;2023-06-14T00:32:41;20.20;44.50
6556;DHT22;3311;48.32423000;14.29074500;2023-06-14T00:35:10;20.20;44.50
6556;DHT22;3311;48.32423000;14.29074500;2023-06-14T00:37:38;20.20;44.70
6556;DHT22;3311;48.32423000;14.29074500;2023-06-14T00:40:06;20.20;44.50
6556;DHT22;3311;48.32423000;14.29074500;2023-06-14T00:42:34;20.20;44.50
6556;DHT22;3311;48.32423000;14.29074500;2023-06-14T00:45:01;20.10;44.90
6556;DHT22;3311;48.32423000;14.29074500;2023-06-14T00:47:29;20.10;44.90
6556;DHT22;3311;48.32423000;14.29074500;2023-06-14T00:49:56;20.10;45.10
6556;DHT22;3311;48.32423000;14.29074500;2023-06-14T00:52:26;20.00;44.80
6556;DHT22;3311;48.32423000;14.29074500;2023-06-14T00:54:53;20.00;45.20
6556;DHT22;3311;48.32423000;14.29074500;2023-06-14T00:57:21;19.90;45.50
6556;DHT22;3311;48.32423000;14.29074500;2023-06-14T00:59:50;19.80;45.50
6556;DHT22;3311;48.32423000;14.29074500;2023-06-14T01:02:18;19.90;45.60
6556;DHT22;3311;48.32423000;14.29074500;2023-06-14T01:04:47;20.00;45.70
6556;DHT22;3311;48.32423000;14.29074500;2023-06-14T01:07:25;19.80;45.90
6556;DHT22;3311;48.32423000;14.29074500;2023-06-14T01:10:12;19.90;46.40
6556;DHT22;3311;48.32423000;14.29074500;2023-06-14T01:12:47;19.90;46.10
6556;DHT22;3311;48.32423000;14.29074500;2023-06-14T01:15:18;19.90;46.20
6556;DHT22;3311;48.32423000;14.29074500;2023-06-14T01:17:49;19.90;46.20
6556;DHT22;3311;48.32423000;14.29074500;2023-06-14T01:20:20;20.00;46.40
6556;DHT22;3311;48.32423000;14.29074500;2023-06-14T01:22:53;19.90;46.50
6556;DHT22;3311;48.32423000;14.29074500;2023-06-14T01:25:22;20.00;46.40
6556;DHT22;3311;48.32423000;14.29074500;2023-06-14T01:27:53;19.90;46.70
6556;DHT22;3311;48.32423000;14.29074500;2023-06-14T01:30:22;19.90;46.90
6556;DHT22;3311;48.32423000;14.29074500;2023-06-14T01:32:52;19.90;46.70
6556;DHT22;3311;48.32423000;14.29074500;2023-06-14T01:35:20;19.90;46.70
6556;DHT22;3311;48.32423000;14.29074500;2023-06-14T01:37:48;19.80;46.90
6556;DHT22;3311;48.32423000;14.29074500;2023-06-14T01:40:18;19.70;47.20
6556;DHT22;3311;48.32423000;14.29074500;2023-06-14T01:42:48;19.70;47.30
6556;DHT22;3311;48.32423000;14.29074500;2023-06-14T01:45:17;19.70;47.10
6556;DHT22;3311;48.32423000;14.29074500;2023-06-14T01:47:46;19.70;47.50
6556;DHT22;3311;48.32423000;14.29074500;2023-06-14T01:50:14;19.70;47.50
6556;DHT22;3311;48.32423000;14.29074500;2023-06-14T01:52:41;19.80;47.60
6556;DHT22;3311;48.32423000;14.29074500;2023-06-14T01:55:09;19.80;47.30
6556;DHT22;3311;48.32423000;14.29074500;2023-06-14T01:57:37;19.70;47.00
6556;DHT22;3311;48.32423000;14.29074500;2023-06-14T02:00:06;19.80;47.10
6556;DHT22;3311;48.32423000;14.29074500;2023-06-14T02:02:38;19.70;47.20
6556;DHT22;3311;48.32423000;14.29074500;2023-06-14T02:05:06;19.70;47.40
6556;DHT22;3311;48.32423000;14.29074500;2023-06-14T02:07:33;19.60;47.50
6556;DHT22;3311;48.32423000;14.29074500;2023-06-14T02:10:00;19.50;47.70
6556;DHT22;3311;48.32423000;14.29074500;2023-06-14T02:12:28;19.50;47.90
6556;DHT22;3311;48.32423000;14.29074500;2023-06-14T02:14:57;19.60;48.00
6556;DHT22;3311;48.32423000;14.29074500;2023-06-14T02:17:24;19.60;47.80
6556;DHT22;3311;48.32423000;14.29074500;2023-06-14T02:19:51;19.60;47.90
6556;DHT22;3311;48.32423000;14.29074500;2023-06-14T02:22:19;19.60;47.70
6556;DHT22;3311;48.32423000;14.29074500;2023-06-14T02:24:48;19.60;47.80
6556;DHT22;3311;48.32423000;14.29074500;2023-06-14T02:27:16;19.60;48.00
6556;DHT22;3311;48.32423000;14.29074500;2023-06-14T02:29:43;19.50;48.10
6556;DHT22;3311;48.32423000;14.29074500;2023-06-14T02:32:12;19.60;48.30
6556;DHT22;3311;48.32423000;14.29074500;2023-06-14T02:34:39;19.60;48.30
6556;DHT22;3311;48.32423000;14.29074500;2023-06-14T02:37:07;19.50;48.50
6556;DHT22;3311;48.32423000;14.29074500;2023-06-14T02:39:35;19.50;48.30
6556;DHT22;3311;48.32423000;14.29074500;2023-06-14T02:42:02;19.50;48.60
6556;DHT22;3311;48.32423000;14.29074500;2023-06-14T02:44:30;19.50;48.70
6556;DHT22;3311;48.32423000;14.29074500;2023-06-14T02:46:58;19.50;48.60
6556;DHT22;3311;48.32423000;14.29074500;2023-06-14T02:49:28;19.40;48.70
6556;DHT22;3311;48.32423000;14.29074500;2023-06-14T02:51:55;19.40;48.90
6556;DHT22;3311;48.32423000;14.29074500;2023-06-14T02:54:22;19.40;49.00
6556;DHT22;3311;48.32423000;14.29074500;2023-06-14T02:56:50;19.40;48.90
6556;DHT22;3311;48.32423000;14.29074500;2023-06-14T02:59:17;19.40;48.90
6556;DHT22;3311;48.32423000;14.29074500;2023-06-14T03:01:45;19.40;49.10
6556;DHT22;3311;48.32423000;14.29074500;2023-06-14T03:04:12;19.30;49.10
6556;DHT22;3311;48.32423000;14.29074500;2023-06-14T03:06:41;19.30;49.20
6556;DHT22;3311;48.32423000;14.29074500;2023-06-14T03:09:11;19.40;49.10
6556;DHT22;3311;48.32423000;14.29074500;2023-06-14T03:11:39;19.40;49.10
6556;DHT22;3311;48.32423000;14.29074500;2023-06-14T03:14:07;19.40;49.10
6556;DHT22;3311;48.32423000;14.29074500;2023-06-14T03:16:34;19.40;49.20
6556;DHT22;3311;48.32423000;14.29074500;2023-06-14T03:19:03;19.40;49.20
6556;DHT22;3311;48.32423000;14.29074500;2023-06-14T03:21:30;19.40;49.30
6556;DHT22;3311;48.32423000;14.29074500;2023-06-14T03:23:59;19.40;49.40
6556;DHT22;3311;48.32423000;14.29074500;2023-06-14T03:26:28;19.30;50.00
6556;DHT22;3311;48.32423000;14.29074500;2023-06-14T03:28:57;19.30;49.90
6556;DHT22;3311;48.32423000;14.29074500;2023-06-14T03:31:24;19.40;49.80
6556;DHT22;3311;48.32423000;14.29074500;2023-06-14T03:33:51;19.50;49.80
6556;DHT22;3311;48.32423000;14.29074500;2023-06-14T03:36:19;19.50;49.60
6556;DHT22;3311;48.32423000;14.29074500;2023-06-14T03:38:46;19.50;49.70
6556;DHT22;3311;48.32423000;14.29074500;2023-06-14T03:41:15;19.40;49.90
6556;DHT22;3311;48.32423000;14.29074500;2023-06-14T03:43:42;19.40;50.10
6556;DHT22;3311;48.32423000;14.29074500;2023-06-14T03:46:09;19.40;50.40
6556;DHT22;3311;48.32423000;14.29074500;2023-06-14T03:48:37;19.40;50.60
6556;DHT22;3311;48.32423000;14.29074500;2023-06-14T03:51:04;19.30;50.60
6556;DHT22;3311;48.32423000;14.29074500;2023-06-14T03:53:31;19.40;50.80
6556;DHT22;3311;48.32423000;14.29074500;2023-06-14T03:56:01;19.40;50.70
6556;DHT22;3311;48.32423000;14.29074500;2023-06-14T03:58:30;19.40;50.80
6556;DHT22;3311;48.32423000;14.29074500;2023-06-14T04:00:58;19.50;51.60
6556;DHT22;3311;48.32423000;14.29074500;2023-06-14T04:03:26;19.60;51.00
6556;DHT22;3311;48.32423000;14.29074500;2023-06-14T04:05:55;19.70;51.20
6556;DHT22;3311;48.32423000;14.29074500;2023-06-14T04:08:25;19.80;51.00
6556;DHT22;3311;48.32423000;14.29074500;2023-06-14T04:10:52;19.90;51.30
6556;DHT22;3311;48.32423000;14.29074500;2023-06-14T04:13:20;19.90;51.10
6556;DHT22;3311;48.32423000;14.29074500;2023-06-14T04:15:48;19.90;51.60
6556;DHT22;3311;48.32423000;14.29074500;2023-06-14T04:18:16;19.90;51.70
6556;DHT22;3311;48.32423000;14.29074500;2023-06-14T04:20:43;20.00;52.20
6556;DHT22;3311;48.32423000;14.29074500;2023-06-14T04:23:12;20.00;52.40
6556;DHT22;3311;48.32423000;14.29074500;2023-06-14T04:25:40;20.10;51.90
6556;DHT22;3311;48.32423000;14.29074500;2023-06-14T04:28:11;20.20;51.80
6556;DHT22;3311;48.32423000;14.29074500;2023-06-14T04:30:39;20.40;51.90
6556;DHT22;3311;48.32423000;14.29074500;2023-06-14T04:33:08;20.50;51.50
6556;DHT22;3311;48.32423000;14.29074500;2023-06-14T04:35:36;20.60;51.10
6556;DHT22;3311;48.32423000;14.29074500;2023-06-14T04:38:04;20.80;51.00
6556;DHT22;3311;48.32423000;14.29074500;2023-06-14T04:40:35;20.80;51.00
6556;DHT22;3311;48.32423000;14.29074500;2023-06-14T04:43:08;20.90;50.80
6556;DHT22;3311;48.32423000;14.29074500;2023-06-14T04:45:38;21.00;50.40
6556;DHT22;3311;48.32423000;14.29074500;2023-06-14T04:48:07;21.10;50.40
6556;DHT22;3311;48.32423000;14.29074500;2023-06-14T04:50:36;21.20;50.40
6556;DHT22;3311;48.32423000;14.29074500;2023-06-14T04:53:03;21.30;50.10
6556;DHT22;3311;48.32423000;14.29074500;2023-06-14T04:55:31;21.40;50.20
6556;DHT22;3311;48.32423000;14.29074500;2023-06-14T04:57:58;22.40;50.80
6556;DHT22;3311;48.32423000;14.29074500;2023-06-14T05:00:26;21.60;49.90
6556;DHT22;3311;48.32423000;14.29074500;2023-06-14T05:02:53;21.60;49.80
6556;DHT22;3311;48.32423000;14.29074500;2023-06-14T05:05:22;21.70;49.50
6556;DHT22;3311;48.32423000;14.29074500;2023-06-14T05:07:49;21.80;49.10
6556;DHT22;3311;48.32423000;14.29074500;2023-06-14T05:10:17;21.80;48.90
6556;DHT22;3311;48.32423000;14.29074500;2023-06-14T05:12:45;21.90;48.90
6556;DHT22;3311;48.32423000;14.29074500;2023-06-14T05:15:14;22.00;48.70
6556;DHT22;3311;48.32423000;14.29074500;2023-06-14T05:17:41;22.10;48.60
6556;DHT22;3311;48.32423000;14.29074500;2023-06-14T05:20:09;22.10;48.40
6556;DHT22;3311;48.32423000;14.29074500;2023-06-14T05:22:39;22.20;48.30
6556;DHT22;3311;48.32423000;14.29074500;2023-06-14T05:25:06;22.20;48.20
6556;DHT22;3311;48.32423000;14.29074500;2023-06-14T05:27:34;22.30;48.30
6556;DHT22;3311;48.32423000;14.29074500;2023-06-14T05:30:03;22.30;48.10
6556;DHT22;3311;48.32423000;14.29074500;2023-06-14T05:32:30;22.40;48.10
6556;DHT22;3311;48.32423000;14.29074500;2023-06-14T05:34:58;22.40;47.90
6556;DHT22;3311;48.32423000;14.29074500;2023-06-14T05:37:25;22.50;48.00
6556;DHT22;3311;48.32423000;14.29074500;2023-06-14T05:39:54;22.40;47.80
6556;DHT22;3311;48.32423000;14.29074500;2023-06-14T05:42:21;22.50;47.90
6556;DHT22;3311;48.32423000;14.29074500;2023-06-14T05:44:48;22.50;47.90
6556;DHT22;3311;48.32423000;14.29074500;2023-06-14T05:47:16;22.50;47.80
6556;DHT22;3311;48.32423000;14.29074500;2023-06-14T05:49:43;22.60;47.70
6556;DHT22;3311;48.32423000;14.29074500;2023-06-14T05:52:10;22.60;47.70
6556;DHT22;3311;48.32423000;14.29074500;2023-06-14T05:54:38;22.60;47.70
6556;DHT22;3311;48.32423000;14.29074500;2023-06-14T05:57:08;22.70;47.70
6556;DHT22;3311;48.32423000;14.29074500;2023-06-14T05:59:36;22.70;47.60
6556;DHT22;3311;48.32423000;14.29074500;2023-06-14T06:02:04;22.70;47.60
6556;DHT22;3311;48.32423000;14.29074500;2023-06-14T06:04:31;22.80;47.60
6556;DHT22;3311;48.32423000;14.29074500;2023-06-14T06:06:58;22.80;47.50
6556;DHT22;3311;48.32423000;14.29074500;2023-06-14T06:09:25;22.80;47.50
6556;DHT22;3311;48.32423000;14.29074500;2023-06-14T06:11:52;22.90;47.50
6556;DHT22;3311;48.32423000;14.29074500;2023-06-14T06:14:21;22.90;47.50
6556;DHT22;3311;48.32423000;14.29074500;2023-06-14T06:16:48;22.90;47.40
6556;DHT22;3311;48.32423000;14.29074500;2023-06-14T06:19:16;23.00;47.50
6556;DHT22;3311;48.32423000;14.29074500;2023-06-14T06:21:43;23.00;47.50
6556;DHT22;3311;48.32423000;14.29074500;2023-06-14T06:24:10;23.00;47.30
6556;DHT22;3311;48.32423000;14.29074500;2023-06-14T06:26:37;23.00;47.30
6556;DHT22;3311;48.32423000;14.29074500;2023-06-14T06:29:05;23.10;47.30
6556;DHT22;3311;48.32423000;14.29074500;2023-06-14T06:31:34;23.10;47.30
6556;DHT22;3311;48.32423000;14.29074500;2023-06-14T06:34:01;23.10;47.10
6556;DHT22;3311;48.32423000;14.29074500;2023-06-14T06:36:28;23.10;47.30
6556;DHT22;3311;48.32423000;14.29074500;2023-06-14T06:38:55;23.10;47.20
6556;DHT22;3311;48.32423000;14.29074500;2023-06-14T06:41:23;23.10;47.00
6556;DHT22;3311;48.32423000;14.29074500;2023-06-14T06:43:50;23.10;47.00
6556;DHT22;3311;48.32423000;14.29074500;2023-06-14T06:46:17;23.20;47.10
6556;DHT22;3311;48.32423000;14.29074500;2023-06-14T06:48:46;23.20;46.90
6556;DHT22;3311;48.32423000;14.29074500;2023-06-14T06:51:13;23.20;46.90
6556;DHT22;3311;48.32423000;14.29074500;2023-06-14T06:53:42;23.20;46.90
6556;DHT22;3311;48.32423000;14.29074500;2023-06-14T06:56:10;23.20;46.70
6556;DHT22;3311;48.32423000;14.29074500;2023-06-14T06:58:37;23.20;46.70
6556;DHT22;3311;48.32423000;14.29074500;2023-06-14T07:01:04;23.20;46.80
6556;DHT22;3311;48.32423000;14.29074500;2023-06-14T07:03:32;23.30;46.80
6556;DHT22;3311;48.32423000;14.29074500;2023-06-14T07:06:00;23.30;46.80
6556;DHT22;3311;48.32423000;14.29074500;2023-06-14T07:08:27;23.30;46.90
6556;DHT22;3311;48.32423000;14.29074500;2023-06-14T07:10:54;23.30;46.90
6556;DHT22;3311;48.32423000;14.29074500;2023-06-14T07:13:22;23.40;47.00
6556;DHT22;3311;48.32423000;14.29074500;2023-06-14T07:15:49;23.40;46.90
6556;DHT22;3311;48.32423000;14.29074500;2023-06-14T07:18:19;23.40;46.80
6556;DHT22;3311;48.32423000;14.29074500;2023-06-14T07:20:46;23.40;46.80
6556;DHT22;3311;48.32423000;14.29074500;2023-06-14T07:23:15;23.40;47.00
6556;DHT22;3311;48.32423000;14.29074500;2023-06-14T07:25:42;23.40;46.90
6556;DHT22;3311;48.32423000;14.29074500;2023-06-14T07:28:09;23.50;46.90
6556;DHT22;3311;48.32423000;14.29074500;2023-06-14T07:30:37;23.50;46.80
6556;DHT22;3311;48.32423000;14.29074500;2023-06-14T07:33:04;23.50;46.80
6556;DHT22;3311;48.32423000;14.29074500;2023-06-14T07:35:31;23.50;46.80
6556;DHT22;3311;48.32423000;14.29074500;2023-06-14T07:37:58;23.50;46.70
6556;DHT22;3311;48.32423000;14.29074500;2023-06-14T07:40:27;23.50;46.80
6556;DHT22;3311;48.32423000;14.29074500;2023-06-14T07:42:55;23.60;46.90
6556;DHT22;3311;48.32423000;14.29074500;2023-06-14T07:45:22;23.60;46.90
6556;DHT22;3311;48.32423000;14.29074500;2023-06-14T07:47:49;23.60;46.80
6556;DHT22;3311;48.32423000;14.29074500;2023-06-14T07:50:17;23.70;46.70
6556;DHT22;3311;48.32423000;14.29074500;2023-06-14T07:52:45;23.90;46.60
6556;DHT22;3311;48.32423000;14.29074500;2023-06-14T07:55:12;24.10;46.30
6556;DHT22;3311;48.32423000;14.29074500;2023-06-14T07:57:42;24.40;46.10
6556;DHT22;3311;48.32423000;14.29074500;2023-06-14T08:00:11;24.60;45.50
6556;DHT22;3311;48.32423000;14.29074500;2023-06-14T08:02:41;24.90;45.30
6556;DHT22;3311;48.32423000;14.29074500;2023-06-14T08:05:10;25.30;45.10
6556;DHT22;3311;48.32423000;14.29074500;2023-06-14T08:07:37;25.70;44.60
6556;DHT22;3311;48.32423000;14.29074500;2023-06-14T08:10:06;25.90;44.10
6556;DHT22;3311;48.32423000;14.29074500;2023-06-14T08:12:34;26.30;43.60
6556;DHT22;3311;48.32423000;14.29074500;2023-06-14T08:15:03;26.50;43.10
6556;DHT22;3311;48.32423000;14.29074500;2023-06-14T08:17:31;26.70;42.70
6556;DHT22;3311;48.32423000;14.29074500;2023-06-14T08:19:58;26.70;42.40
6556;DHT22;3311;48.32423000;14.29074500;2023-06-14T08:22:25;26.60;42.20
6556;DHT22;3311;48.32423000;14.29074500;2023-06-14T08:24:54;26.40;42.10
6556;DHT22;3311;48.32423000;14.29074500;2023-06-14T08:27:21;26.30;42.10
6556;DHT22;3311;48.32423000;14.29074500;2023-06-14T08:29:49;26.10;42.10
6556;DHT22;3311;48.32423000;14.29074500;2023-06-14T08:32:17;26.00;42.30
6556;DHT22;3311;48.32423000;14.29074500;2023-06-14T08:34:45;25.90;42.60
6556;DHT22;3311;48.32423000;14.29074500;2023-06-14T08:37:12;25.80;42.90
6556;DHT22;3311;48.32423000;14.29074500;2023-06-14T08:39:39;25.60;43.00
6556;DHT22;3311;48.32423000;14.29074500;2023-06-14T08:42:09;25.50;43.40
6556;DHT22;3311;48.32423000;14.29074500;2023-06-14T08:44:36;25.20;43.90
6556;DHT22;3311;48.32423000;14.29074500;2023-06-14T08:47:07;25.00;44.40
6556;DHT22;3311;48.32423000;14.29074500;2023-06-14T08:49:38;24.80;44.80
6556;DHT22;3311;48.32423000;14.29074500;2023-06-14T08:52:10;24.60;45.30
6556;DHT22;3311;48.32423000;14.29074500;2023-06-14T08:54:38;24.40;45.70
6556;DHT22;3311;48.32423000;14.29074500;2023-06-14T08:57:10;24.20;46.00
6556;DHT22;3311;48.32423000;14.29074500;2023-06-14T08:59:46;24.10;46.30
6556;DHT22;3311;48.32423000;14.29074500;2023-06-14T09:02:15;24.00;46.70
6556;DHT22;3311;48.32423000;14.29074500;2023-06-14T09:04:45;24.00;46.80
6556;DHT22;3311;48.32423000;14.29074500;2023-06-14T09:07:13;23.90;47.10
6556;DHT22;3311;48.32423000;14.29074500;2023-06-14T09:09:40;23.90;47.20
6556;DHT22;3311;48.32423000;14.29074500;2023-06-14T09:12:10;23.80;47.30
6556;DHT22;3311;48.32423000;14.29074500;2023-06-14T09:14:38;23.80;47.40
6556;DHT22;3311;48.32423000;14.29074500;2023-06-14T09:17:07;23.70;47.50
6556;DHT22;3311;48.32423000;14.29074500;2023-06-14T09:19:35;23.70;47.70
6556;DHT22;3311;48.32423000;14.29074500;2023-06-14T09:22:05;23.70;47.60
6556;DHT22;3311;48.32423000;14.29074500;2023-06-14T09:24:32;23.70;47.70
6556;DHT22;3311;48.32423000;14.29074500;2023-06-14T09:26:59;23.70;47.80
6556;DHT22;3311;48.32423000;14.29074500;2023-06-14T09:29:26;23.70;47.90
6556;DHT22;3311;48.32423000;14.29074500;2023-06-14T09:31:53;23.60;48.00
6556;DHT22;3311;48.32423000;14.29074500;2023-06-14T09:34:21;23.60;48.00
6556;DHT22;3311;48.32423000;14.29074500;2023-06-14T09:36:49;23.60;48.10
6556;DHT22;3311;48.32423000;14.29074500;2023-06-14T09:39:18;23.60;48.20
6556;DHT22;3311;48.32423000;14.29074500;2023-06-14T09:41:45;23.60;48.10
6556;DHT22;3311;48.32423000;14.29074500;2023-06-14T09:44:13;23.50;47.90
6556;DHT22;3311;48.32423000;14.29074500;2023-06-14T09:46:40;23.50;48.00
6556;DHT22;3311;48.32423000;14.29074500;2023-06-14T09:49:08;23.50;48.50
6556;DHT22;3311;48.32423000;14.29074500;2023-06-14T09:51:41;23.50;48.40
6556;DHT22;3311;48.32423000;14.29074500;2023-06-14T09:54:14;23.50;48.50
6556;DHT22;3311;48.32423000;14.29074500;2023-06-14T09:56:45;23.50;48.40
6556;DHT22;3311;48.32423000;14.29074500;2023-06-14T09:59:17;23.40;48.50
6556;DHT22;3311;48.32423000;14.29074500;2023-06-14T10:01:47;23.40;48.60
6556;DHT22;3311;48.32423000;14.29074500;2023-06-14T10:04:16;23.40;48.70
6556;DHT22;3311;48.32423000;14.29074500;2023-06-14T10:06:46;23.40;48.70
6556;DHT22;3311;48.32423000;14.29074500;2023-06-14T10:09:14;23.40;48.70
6556;DHT22;3311;48.32423000;14.29074500;2023-06-14T10:11:44;23.30;48.50
6556;DHT22;3311;48.32423000;14.29074500;2023-06-14T10:14:12;23.30;49.00
6556;DHT22;3311;48.32423000;14.29074500;2023-06-14T10:16:47;23.40;48.90
6556;DHT22;3311;48.32423000;14.29074500;2023-06-14T10:19:19;23.30;48.80
6556;DHT22;3311;48.32423000;14.29074500;2023-06-14T10:21:54;23.30;49.00
6556;DHT22;3311;48.32423000;14.29074500;2023-06-14T10:24:27;23.30;48.90
6556;DHT22;3311;48.32423000;14.29074500;2023-06-14T10:26:58;23.30;49.00
6556;DHT22;3311;48.32423000;14.29074500;2023-06-14T10:29:27;23.30;49.00
6556;DHT22;3311;48.32423000;14.29074500;2023-06-14T10:31:59;23.30;49.00
6556;DHT22;3311;48.32423000;14.29074500;2023-06-14T10:34:30;23.30;49.00
6556;DHT22;3311;48.32423000;14.29074500;2023-06-14T10:37:02;23.30;49.00
6556;DHT22;3311;48.32423000;14.29074500;2023-06-14T10:39:30;23.30;49.10
6556;DHT22;3311;48.32423000;14.29074500;2023-06-14T10:42:02;23.30;49.10
6556;DHT22;3311;48.32423000;14.29074500;2023-06-14T10:44:39;23.30;49.20
6556;DHT22;3311;48.32423000;14.29074500;2023-06-14T10:47:08;23.30;49.20
6556;DHT22;3311;48.32423000;14.29074500;2023-06-14T10:49:41;23.30;49.30
6556;DHT22;3311;48.32423000;14.29074500;2023-06-14T10:52:10;23.20;49.50
6556;DHT22;3311;48.32423000;14.29074500;2023-06-14T10:55:04;23.20;49.50
6556;DHT22;3311;48.32423000;14.29074500;2023-06-14T10:57:34;23.20;49.50
6556;DHT22;3311;48.32423000;14.29074500;2023-06-14T11:00:03;23.20;49.50
6556;DHT22;3311;48.32423000;14.29074500;2023-06-14T11:02:53;23.20;49.50
6556;DHT22;3311;48.32423000;14.29074500;2023-06-14T11:05:28;23.20;49.50
6556;DHT22;3311;48.32423000;14.29074500;2023-06-14T11:08:13;23.20;49.70
6556;DHT22;3311;48.32423000;14.29074500;2023-06-14T11:10:44;23.10;49.40
6556;DHT22;3311;48.32423000;14.29074500;2023-06-14T11:16:26;23.10;49.80
6556;DHT22;3311;48.32423000;14.29074500;2023-06-14T11:18:54;23.10;50.00
6556;DHT22;3311;48.32423000;14.29074500;2023-06-14T11:21:22;23.10;49.90
6556;DHT22;3311;48.32423000;14.29074500;2023-06-14T11:23:56;23.00;49.90
6556;DHT22;3311;48.32423000;14.29074500;2023-06-14T11:26:26;23.00;50.30
6556;DHT22;3311;48.32423000;14.29074500;2023-06-14T11:28:58;23.00;50.40
6556;DHT22;3311;48.32423000;14.29074500;2023-06-14T11:31:28;23.00;50.30
6556;DHT22;3311;48.32423000;14.29074500;2023-06-14T11:33:57;23.00;50.40
6556;DHT22;3311;48.32423000;14.29074500;2023-06-14T11:36:27;22.90;49.60
6556;DHT22;3311;48.32423000;14.29074500;2023-06-14T11:38:59;22.90;50.00
6556;DHT22;3311;48.32423000;14.29074500;2023-06-14T11:41:34;22.90;49.80
6556;DHT22;3311;48.32423000;14.29074500;2023-06-14T11:44:02;22.90;49.40
6556;DHT22;3311;48.32423000;14.29074500;2023-06-14T11:46:31;22.90;49.60
6556;DHT22;3311;48.32423000;14.29074500;2023-06-14T11:48:58;22.90;49.50
6556;DHT22;3311;48.32423000;14.29074500;2023-06-14T11:51:28;22.90;49.80
6556;DHT22;3311;48.32423000;14.29074500;2023-06-14T11:53:56;22.90;49.60
6556;DHT22;3311;48.32423000;14.29074500;2023-06-14T11:56:24;22.90;49.50
6556;DHT22;3311;48.32423000;14.29074500;2023-06-14T11:58:52;22.90;49.60
6556;DHT22;3311;48.32423000;14.29074500;2023-06-14T12:01:22;23.00;49.50
6556;DHT22;3311;48.32423000;14.29074500;2023-06-14T12:03:52;22.90;49.60
6556;DHT22;3311;48.32423000;14.29074500;2023-06-14T12:06:27;22.90;49.40
6556;DHT22;3311;48.32423000;14.29074500;2023-06-14T12:08:59;22.90;49.30
6556;DHT22;3311;48.32423000;14.29074500;2023-06-14T12:11:32;22.90;49.00
6556;DHT22;3311;48.32423000;14.29074500;2023-06-14T12:14:00;22.90;49.30
6556;DHT22;3311;48.32423000;14.29074500;2023-06-14T12:16:31;22.80;48.60
6556;DHT22;3311;48.32423000;14.29074500;2023-06-14T12:19:11;22.90;48.80
6556;DHT22;3311;48.32423000;14.29074500;2023-06-14T12:21:39;22.90;48.90
6556;DHT22;3311;48.32423000;14.29074500;2023-06-14T12:24:07;22.90;48.70
6556;DHT22;3311;48.32423000;14.29074500;2023-06-14T12:26:38;22.90;48.70
6556;DHT22;3311;48.32423000;14.29074500;2023-06-14T12:29:07;22.90;48.60
6556;DHT22;3311;48.32423000;14.29074500;2023-06-14T12:31:34;22.90;48.50
6556;DHT22;3311;48.32423000;14.29074500;2023-06-14T12:34:01;22.90;49.00
6556;DHT22;3311;48.32423000;14.29074500;2023-06-14T12:36:30;22.90;49.60
6556;DHT22;3311;48.32423000;14.29074500;2023-06-14T12:38:57;23.00;49.50
6556;DHT22;3311;48.32423000;14.29074500;2023-06-14T12:41:25;23.00;50.20
6556;DHT22;3311;48.32423000;14.29074500;2023-06-14T12:43:53;22.90;50.10
6556;DHT22;3311;48.32423000;14.29074500;2023-06-14T12:46:20;23.00;50.10
6556;DHT22;3311;48.32423000;14.29074500;2023-06-14T12:48:47;23.00;50.20
6556;DHT22;3311;48.32423000;14.29074500;2023-06-14T12:51:14;23.00;50.70
6556;DHT22;3311;48.32423000;14.29074500;2023-06-14T12:53:43;23.00;50.40
6556;DHT22;3311;48.32423000;14.29074500;2023-06-14T12:56:10;23.00;50.60
6556;DHT22;3311;48.32423000;14.29074500;2023-06-14T12:58:38;23.00;50.30
6556;DHT22;3311;48.32423000;14.29074500;2023-06-14T13:01:05;23.00;50.20
6556;DHT22;3311;48.32423000;14.29074500;2023-06-14T13:03:32;23.00;50.30
6556;DHT22;3311;48.32423000;14.29074500;2023-06-14T13:06:00;23.00;50.30
6556;DHT22;3311;48.32423000;14.29074500;2023-06-14T13:08:27;23.00;50.70
6556;DHT22;3311;48.32423000;14.29074500;2023-06-14T13:10:56;23.00;50.80
6556;DHT22;3311;48.32423000;14.29074500;2023-06-14T13:13:23;23.00;50.20
6556;DHT22;3311;48.32423000;14.29074500;2023-06-14T13:15:51;23.00;49.80
6556;DHT22;3311;48.32423000;14.29074500;2023-06-14T13:18:18;23.00;50.00
6556;DHT22;3311;48.32423000;14.29074500;2023-06-14T13:20:46;23.00;51.00
6556;DHT22;3311;48.32423000;14.29074500;2023-06-14T13:23:14;23.00;50.50
6556;DHT22;3311;48.32423000;14.29074500;2023-06-14T13:25:42;23.00;50.00
6556;DHT22;3311;48.32423000;14.29074500;2023-06-14T13:28:11;22.20;49.20
6556;DHT22;3311;48.32423000;14.29074500;2023-06-14T13:30:38;23.00;49.60
6556;DHT22;3311;48.32423000;14.29074500;2023-06-14T13:33:05;23.00;49.40
6556;DHT22;3311;48.32423000;14.29074500;2023-06-14T13:35:32;23.00;49.50
6556;DHT22;3311;48.32423000;14.29074500;2023-06-14T13:38:00;23.00;49.10
6556;DHT22;3311;48.32423000;14.29074500;2023-06-14T13:40:28;23.00;49.60
6556;DHT22;3311;48.32423000;14.29074500;2023-06-14T13:42:55;23.00;49.60
6556;DHT22;3311;48.32423000;14.29074500;2023-06-14T13:45:24;23.00;49.50